Time;durP1;ratioP1;P1;durP2;ratioP2;P2;SDS_P1;SDS_P2;PMS_P1;PMS_P2;Temp;Humidity;BMP_temperature;BMP_pressure;BME280_temperature;BME280_humidity;BME280_pressure;Samples;Min_cycle;Max_cycle;Signal;HPM_P1;HPM_P2
2022/09/20 00:00:40;;;;;;;8.43;6.28;;;9.70;99.90;;;;;;5042737;28;20100;-74
2022/09/20 00:03:05;;;;;;;11.82;6.53;;;9.70;99.90;;;;;;5040453;28;20029;-74
2022/09/20 00:05:39;;;;;;;10.68;6.90;;;9.70;99.90;;;;;;5053898;28;20492;-73
2022/09/20 00:08:06;;;;;;;8.57;5.72;;;9.70;99.90;;;;;;5050536;28;20028;-73
2022/09/20 00:10:38;;;;;;;10.00;5.55;;;9.70;99.90;;;;;;5042016;28;20386;-73
2022/09/20 00:13:06;;;;;;;8.93;5.80;;;9.70;99.90;;;;;;5050593;28;20025;-73
2022/09/20 00:15:32;;;;;;;8.48;6.10;;;9.80;99.90;;;;;;5052563;28;20056;-73
2022/09/20 00:17:57;;;;;;;8.35;5.40;;;9.70;99.90;;;;;;5044748;28;20426;-73
2022/09/20 00:20:24;;;;;;;8.65;6.30;;;9.60;99.90;;;;;;5033792;28;20532;-73
2022/09/20 00:22:50;;;;;;;7.60;5.32;;;9.70;99.90;;;;;;5033380;28;20071;-73
2022/09/20 00:25:16;;;;;;;8.90;5.68;;;9.50;99.90;;;;;;5044399;28;20021;-73
2022/09/20 00:27:44;;;;;;;8.85;5.03;;;;;;;;;;5035879;28;20032;-73
2022/09/20 00:30:11;;;;;;;8.35;4.80;;;9.30;99.90;;;;;;5044522;28;20402;-73
2022/09/20 00:32:36;;;;;;;5.82;4.15;;;9.30;99.90;;;;;;5039961;28;20032;-74
2022/09/20 00:35:09;;;;;;;8.05;4.78;;;9.40;99.90;;;;;;5042673;28;20025;-73
2022/09/20 00:37:37;;;;;;;10.68;4.60;;;9.30;99.90;;;;;;5033304;28;20088;-73
2022/09/20 00:40:05;;;;;;;6.95;3.80;;;9.30;99.90;;;;;;5033419;28;20057;-73
2022/09/20 00:42:31;;;;;;;8.38;4.20;;;9.30;99.90;;;;;;5044813;28;20025;-72
2022/09/20 00:45:26;;;;;;;8.85;4.32;;;9.30;99.90;;;;;;5045316;28;20021;-72
2022/09/20 00:47:55;;;;;;;10.75;3.70;;;9.40;99.90;;;;;;5044511;28;20053;-71
2022/09/20 00:50:20;;;;;;;6.07;3.83;;;9.40;99.90;;;;;;5043365;28;20025;-71
2022/09/20 00:52:50;;;;;;;8.00;3.95;;;9.40;99.90;;;;;;5052706;28;20382;-72
2022/09/20 00:55:17;;;;;;;6.20;3.65;;;9.50;99.90;;;;;;5047300;28;20021;-72
2022/09/20 00:57:44;;;;;;;8.80;3.55;;;9.50;99.90;;;;;;5041998;28;20039;-72
2022/09/20 01:00:11;;;;;;;8.13;3.42;;;9.40;99.90;;;;;;5046643;28;20025;-73
2022/09/20 01:02:41;;;;;;;6.28;3.67;;;9.30;99.90;;;;;;5040539;28;20422;-72
2022/09/20 01:05:08;;;;;;;6.07;3.42;;;9.20;99.90;;;;;;5041405;28;20025;-73
2022/09/20 01:07:35;;;;;;;9.32;3.65;;;9.30;99.90;;;;;;5052538;28;20075;-72
2022/09/20 01:10:00;;;;;;;4.13;3.10;;;9.30;99.90;;;;;;5052322;28;20466;-73
2022/09/20 01:12:29;;;;;;;7.30;3.22;;;9.40;99.90;;;;;;5046025;28;20593;-73
2022/09/20 01:14:57;;;;;;;6.28;3.60;;;9.30;99.90;;;;;;5039062;28;20025;-72
2022/09/20 01:17:26;;;;;;;6.82;3.05;;;9.40;99.90;;;;;;5052416;28;20049;-73
2022/09/20 01:20:13;;;;;;;4.85;3.25;;;9.40;99.90;;;;;;5045417;28;20063;-73
2022/09/20 01:22:57;;;;;;;6.43;3.55;;;9.30;99.90;;;;;;5037705;28;20389;-72
2022/09/20 01:26:00;;;;;;;6.43;3.38;;;9.30;99.90;;;;;;5052442;28;20021;-73
2022/09/20 01:28:27;;;;;;;4.22;3.38;;;9.20;99.90;;;;;;5050838;28;20029;-72
2022/09/20 01:31:24;;;;;;;10.07;4.13;;;9.20;99.90;;;;;;5052260;28;20017;-72
2022/09/20 01:34:01;;;;;;;7.47;3.90;;;9.10;99.90;;;;;;5045948;28;20053;-72
2022/09/20 01:36:50;;;;;;;8.75;3.80;;;9.10;99.90;;;;;;5048401;28;20029;-71
2022/09/20 01:39:36;;;;;;;4.82;3.50;;;9.10;99.90;;;;;;5037948;28;20068;-71
2022/09/20 01:42:07;;;;;;;4.80;2.93;;;9.10;99.90;;;;;;5043556;28;20475;-71
2022/09/20 01:45:00;;;;;;;6.05;3.30;;;9.20;99.90;;;;;;5040114;28;20280;-72
2022/09/20 01:47:39;;;;;;;5.13;3.22;;;9.20;99.90;;;;;;5042522;28;20080;-72
2022/09/20 01:50:28;;;;;;;4.82;3.25;;;9.20;99.90;;;;;;5032221;28;20104;-71
2022/09/20 01:53:30;;;;;;;6.72;3.38;;;9.20;99.90;;;;;;5040887;28;20021;-71
2022/09/20 01:56:17;;;;;;;5.80;3.65;;;9.30;99.90;;;;;;5042040;28;20375;-71
2022/09/20 01:59:10;;;;;;;4.60;3.20;;;9.40;99.90;;;;;;5047852;28;20509;-72
2022/09/20 02:01:48;;;;;;;6.15;3.30;;;9.40;99.90;;;;;;5035302;28;20032;-73
2022/09/20 02:04:49;;;;;;;4.93;3.72;;;9.40;99.90;;;;;;5043000;28;20059;-73
2022/09/20 02:07:49;;;;;;;5.70;3.55;;;9.50;99.90;;;;;;5051681;28;20082;-73
2022/09/20 02:10:34;;;;;;;6.28;3.50;;;9.50;99.90;;;;;;5030615;28;20029;-73
2022/09/20 02:13:27;;;;;;;7.75;3.92;;;9.40;99.90;;;;;;5049180;28;20052;-71
2022/09/20 02:16:23;;;;;;;6.63;3.30;;;9.40;99.90;;;;;;5051604;28;20060;-73
2022/09/20 02:19:32;;;;;;;6.80;3.60;;;9.30;99.90;;;;;;5050087;28;20013;-73
2022/09/20 02:22:34;;;;;;;6.13;3.78;;;9.10;99.90;;;;;;5030517;28;20036;-72
2022/09/20 02:25:12;;;;;;;7.25;4.30;;;9.00;99.90;;;;;;5035106;28;20023;-72
2022/09/20 02:27:59;;;;;;;8.48;4.35;;;8.90;99.90;;;;;;5042656;28;20022;-73
2022/09/20 02:30:46;;;;;;;6.15;3.72;;;8.80;99.90;;;;;;5048139;28;20017;-72
2022/09/20 02:33:41;;;;;;;7.05;3.67;;;8.80;99.90;;;;;;5045166;28;20048;-72
2022/09/20 02:36:07;;;;;;;8.10;3.72;;;8.90;99.90;;;;;;5045782;28;20029;-73
2022/09/20 02:39:07;;;;;;;9.27;3.60;;;9.00;99.90;;;;;;5048061;28;20029;-73
2022/09/20 02:41:50;;;;;;;6.03;3.40;;;9.10;99.90;;;;;;4980187;28;20387;-73
2022/09/20 02:44:38;;;;;;;5.72;3.53;;;9.20;99.90;;;;;;5032073;28;20025;-73
2022/09/20 02:47:34;;;;;;;8.52;3.42;;;9.20;99.90;;;;;;5044697;28;20022;-73
2022/09/20 02:50:39;;;;;;;4.47;3.63;;;9.30;99.90;;;;;;5044460;28;20021;-73
2022/09/20 02:53:10;;;;;;;5.28;3.42;;;9.20;99.90;;;;;;5043629;28;20423;-74
2022/09/20 02:55:48;;;;;;;8.00;4.05;;;9.20;99.90;;;;;;5051209;28;20021;-73
2022/09/20 02:58:29;;;;;;;7.57;3.83;;;9.30;99.90;;;;;;5051243;28;20103;-73
2022/09/20 03:01:10;;;;;;;5.20;4.10;;;9.30;99.90;;;;;;5051200;28;20067;-73
2022/09/20 03:04:13;;;;;;;7.43;4.10;;;9.20;99.90;;;;;;5050962;28;20090;-73
2022/09/20 03:06:51;;;;;;;5.45;3.55;;;9.10;99.90;;;;;;5050193;28;20017;-72
2022/09/20 03:09:46;;;;;;;5.85;3.90;;;9.10;99.90;;;;;;5053817;28;20017;-72
2022/09/20 03:12:32;;;;;;;5.18;3.97;;;9.10;99.90;;;;;;5044521;28;20021;-72
2022/09/20 03:15:37;;;;;;;8.55;4.93;;;9.20;99.90;;;;;;5051605;28;20036;-72
2022/09/20 03:18:10;;;;;;;8.07;4.53;;;9.00;99.90;;;;;;5011453;28;20033;-73
2022/09/20 03:21:04;;;;;;;6.20;4.18;;;9.00;99.90;;;;;;5051649;28;20025;-72
2022/09/20 03:23:56;;;;;;;4.85;3.92;;;9.00;99.90;;;;;;5034616;28;20494;-73
2022/09/20 03:26:48;;;;;;;5.85;4.32;;;8.90;99.90;;;;;;5023927;28;20079;-72
2022/09/20 03:29:50;;;;;;;6.65;4.00;;;8.70;99.90;;;;;;5047021;28;20025;-74
2022/09/20 03:32:59;;;;;;;10.48;4.53;;;8.60;99.90;;;;;;5047429;28;20475;-73
2022/09/20 03:35:40;;;;;;;8.27;4.18;;;8.80;99.90;;;;;;5045748;28;20116;-74
2022/09/20 03:38:35;;;;;;;8.82;4.05;;;8.70;99.90;;;;;;5054325;28;20017;-74
2022/09/20 03:41:24;;;;;;;9.15;4.60;;;8.80;99.90;;;;;;5034527;28;20463;-74
2022/09/20 03:43:56;;;;;;;10.20;5.00;;;8.70;99.90;;;;;;5032958;28;20029;-73
2022/09/20 03:46:45;;;;;;;9.40;5.38;;;8.60;99.90;;;;;;5034333;28;20033;-72
2022/09/20 03:49:37;;;;;;;8.27;4.30;;;8.60;99.90;;;;;;5034182;28;20029;-72
2022/09/20 03:52:08;;;;;;;6.32;4.35;;;8.60;99.90;;;;;;5052890;28;20032;-73
2022/09/20 03:54:53;;;;;;;14.80;5.90;;;8.60;99.90;;;;;;5040096;28;20044;-73
2022/09/20 03:57:34;;;;;;;7.68;4.63;;;8.50;99.90;;;;;;5034058;28;20073;-73
2022/09/20 04:00:37;;;;;;;15.25;12.75;;;8.40;99.90;;;;;;5034312;28;20025;-73
2022/09/20 04:03:12;;;;;;;10.32;6.47;;;8.40;99.90;;;;;;5045131;28;20045;-73
2022/09/20 04:05:53;;;;;;;7.40;5.00;;;8.40;99.90;;;;;;5048098;28;20425;-73
2022/09/20 04:08:44;;;;;;;10.20;7.47;;;9.40;99.90;;;;;;5048753;28;20057;-72
2022/09/20 04:11:20;;;;;;;11.75;8.35;;;8.40;99.90;;;;;;5047213;28;20163;-72
2022/09/20 04:14:18;;;;;;;7.68;6.28;;;8.50;99.90;;;;;;5053128;28;20017;-72
2022/09/20 04:17:26;;;;;;;11.50;6.45;;;8.50;99.90;;;;;;5045462;28;20109;-72
2022/09/20 04:20:06;;;;;;;9.73;6.07;;;8.50;99.90;;;;;;5040740;28;20032;-72
2022/09/20 04:22:32;;;;;;;8.20;5.13;;;8.50;99.90;;;;;;5039015;28;20030;-72
2022/09/20 04:25:12;;;;;;;11.82;6.40;;;8.40;99.90;;;;;;5043419;28;20459;-73
2022/09/20 04:28:01;;;;;;;12.23;6.75;;;8.50;99.90;;;;;;5045633;28;20430;-74
2022/09/20 04:30:32;;;;;;;11.15;7.40;;;8.50;99.90;;;;;;5045843;28;20036;-74
2022/09/20 04:33:13;;;;;;;11.13;7.85;;;8.40;99.90;;;;;;5032331;28;20038;-73
2022/09/20 04:36:28;;;;;;;10.05;6.80;;;8.40;99.90;;;;;;5046758;28;20033;-74
2022/09/20 04:39:05;;;;;;;12.23;8.30;;;8.40;99.90;;;;;;5049357;28;20021;-73
2022/09/20 04:41:33;;;;;;;11.88;10.05;;;8.30;99.90;;;;;;5042910;28;20108;-73
2022/09/20 04:44:31;;;;;;;23.52;21.27;;;8.40;99.90;;;;;;5034835;28;20486;-74
2022/09/20 04:47:24;;;;;;;11.30;7.22;;;8.40;99.90;;;;;;5033085;28;20024;-72
2022/09/20 04:50:14;;;;;;;12.63;8.30;;;8.40;99.90;;;;;;5036952;28;20047;-73
2022/09/20 04:53:23;;;;;;;10.15;7.43;;;8.40;99.90;;;;;;5044479;28;20509;-74
2022/09/20 04:55:55;;;;;;;10.75;6.95;;;8.40;99.90;;;;;;5040073;28;20027;-72
2022/09/20 04:58:31;;;;;;;13.13;8.18;;;8.50;99.90;;;;;;5052246;28;20739;-72
2022/09/20 05:01:16;;;;;;;14.07;7.97;;;8.50;99.90;;;;;;5034939;28;20026;-72
2022/09/20 05:03:44;;;;;;;11.23;8.30;;;8.50;99.90;;;;;;5032928;28;20049;-74
2022/09/20 05:06:28;;;;;;;11.93;8.35;;;8.50;99.90;;;;;;5037253;28;20021;-74
2022/09/20 05:09:18;;;;;;;22.60;9.48;;;8.50;99.90;;;;;;5032753;28;20018;-74
2022/09/20 05:12:24;;;;;;;15.80;7.90;;;8.50;99.90;;;;;;5032917;28;20033;-73
2022/09/20 05:15:06;;;;;;;13.90;8.30;;;8.50;99.90;;;;;;5022852;28;20036;-74
2022/09/20 05:17:43;;;;;;;13.93;8.90;;;8.50;99.90;;;;;;5038235;28;20033;-74
2022/09/20 05:20:24;;;;;;;13.95;8.77;;;8.40;99.90;;;;;;5031484;28;20061;-73
2022/09/20 05:23:07;;;;;;;13.35;8.18;;;8.50;99.90;;;;;;5035334;28;20052;-73
2022/09/20 05:25:57;;;;;;;14.55;7.78;;;8.50;99.90;;;;;;5038827;28;20033;-74
2022/09/20 05:28:45;;;;;;;13.10;7.80;;;8.50;99.90;;;;;;5031219;28;20022;-73
2022/09/20 05:31:19;;;;;;;12.40;8.05;;;8.50;99.90;;;;;;5045920;28;20017;-75
2022/09/20 05:34:04;;;;;;;13.00;7.40;;;8.60;99.90;;;;;;5032368;28;20189;-74
2022/09/20 05:36:51;;;;;;;14.03;8.17;;;8.50;99.90;;;;;;5032602;28;20479;-74
2022/09/20 05:39:35;;;;;;;12.70;7.50;;;8.50;99.90;;;;;;5046018;28;20428;-73
2022/09/20 05:42:14;;;;;;;15.43;7.90;;;8.50;99.90;;;;;;5036583;28;20034;-73
2022/09/20 05:44:59;;;;;;;15.05;10.15;;;8.50;99.90;;;;;;5051344;28;20116;-76
2022/09/20 05:47:37;;;;;;;16.25;8.82;;;8.60;99.90;;;;;;5032079;28;20029;-73
2022/09/20 05:50:55;;;;;;;18.83;13.70;;;8.60;99.90;;;;;;5045801;28;20025;-74
2022/09/20 05:53:38;;;;;;;16.52;10.25;;;8.50;99.90;;;;;;4984404;28;20109;-74
2022/09/20 05:56:26;;;;;;;17.40;9.15;;;8.50;99.90;;;;;;5032367;28;20079;-73
2022/09/20 05:59:00;;;;;;;15.88;9.15;;;8.50;99.90;;;;;;5039215;28;20542;-74
2022/09/20 06:01:57;;;;;;;12.77;8.40;;;8.60;99.90;;;;;;5051948;28;20056;-73
2022/09/20 06:04:28;;;;;;;11.07;8.40;;;8.60;99.90;;;;;;5043896;28;20030;-73
2022/09/20 06:07:08;;;;;;;11.27;8.20;;;8.70;99.90;;;;;;5038449;28;20037;-73
2022/09/20 06:09:53;;;;;;;10.55;8.25;;;8.70;99.90;;;;;;5036227;28;20379;-73
2022/09/20 06:12:40;;;;;;;13.05;7.90;;;8.70;99.90;;;;;;5043301;28;20021;-73
2022/09/20 06:15:33;;;;;;;13.63;8.30;;;8.70;99.90;;;;;;5031790;28;20025;-73
2022/09/20 06:18:19;;;;;;;15.13;8.05;;;8.70;99.90;;;;;;5035169;28;20033;-73
2022/09/20 06:20:59;;;;;;;12.95;7.88;;;8.80;99.90;;;;;;5037660;28;20081;-73
2022/09/20 06:23:24;;;;;;;16.02;7.75;;;8.80;99.90;;;;;;5042005;28;20044;-73
2022/09/20 06:25:58;;;;;;;14.68;7.22;;;8.80;99.90;;;;;;5046806;28;20025;-74
2022/09/20 06:28:39;;;;;;;12.65;7.78;;;8.80;99.90;;;;;;5040951;28;20025;-74
2022/09/20 06:31:07;;;;;;;12.05;7.40;;;8.90;99.90;;;;;;5045080;28;20025;-74
2022/09/20 06:33:43;;;;;;;15.85;7.80;;;8.80;99.90;;;;;;5044241;28;20390;-74
2022/09/20 06:42:00;;;;;;;11.55;7.85;;;9.00;99.90;;;;;;5038141;28;20049;-74
2022/09/20 06:44:26;;;;;;;12.55;6.93;;;9.10;99.90;;;;;;5043812;28;20025;-73
2022/09/20 06:46:54;;;;;;;13.23;6.82;;;9.00;99.90;;;;;;5047322;28;20033;-74
2022/09/20 06:49:20;;;;;;;12.20;7.10;;;9.00;99.90;;;;;;5042745;28;20080;-73
2022/09/20 06:51:49;;;;;;;15.45;7.20;;;9.10;99.90;;;;;;5044267;28;20483;-73
2022/09/20 06:54:18;;;;;;;11.15;6.85;;;9.10;99.90;;;;;;5043744;28;20084;-74
2022/09/20 06:56:45;;;;;;;11.52;6.70;;;9.10;99.90;;;;;;5050117;28;20497;-73
2022/09/20 06:59:11;;;;;;;14.43;7.13;;;9.20;99.90;;;;;;5045051;28;20018;-72
2022/09/20 07:01:38;;;;;;;12.45;6.72;;;9.10;99.90;;;;;;5048682;28;20034;-73
2022/09/20 07:04:08;;;;;;;15.07;8.15;;;9.10;99.90;;;;;;5034995;28;20025;-73
2022/09/20 07:06:34;;;;;;;16.52;8.07;;;9.30;99.90;;;;;;5048380;28;20387;-73
2022/09/20 07:09:00;;;;;;;12.35;6.90;;;9.20;99.90;;;;;;5034977;28;20109;-74
2022/09/20 07:11:26;;;;;;;17.42;7.60;;;9.30;99.90;;;;;;5039554;28;20100;-74
2022/09/20 07:13:57;;;;;;;12.55;6.85;;;9.30;99.90;;;;;;5044566;28;20040;-74
2022/09/20 07:16:22;;;;;;;13.60;6.82;;;9.40;99.90;;;;;;5048544;28;20040;-74
2022/09/20 07:18:48;;;;;;;11.30;7.20;;;9.50;99.90;;;;;;5044417;28;20033;-74
2022/09/20 07:21:16;;;;;;;15.57;6.90;;;9.50;99.90;;;;;;5037371;28;20023;-74
2022/09/20 07:23:44;;;;;;;16.08;7.68;;;9.60;99.90;;;;;;5044348;28;20158;-74
2022/09/20 07:26:16;;;;;;;13.70;7.22;;;9.70;99.90;;;;;;5050324;28;20506;-73
2022/09/20 07:28:41;;;;;;;12.00;5.50;;;9.70;99.90;;;;;;5034652;28;20067;-74
2022/09/20 07:31:07;;;;;;;9.73;5.30;;;9.70;99.90;;;;;;5048380;28;20564;-73
2022/09/20 07:33:32;;;;;;;12.10;6.30;;;9.80;99.90;;;;;;5046443;28;20103;-74
2022/09/20 07:35:58;;;;;;;10.75;5.43;;;9.90;99.90;;;;;;5041373;28;20030;-73
2022/09/20 07:38:24;;;;;;;15.32;5.43;;;9.80;99.90;;;;;;5042821;28;20029;-74
2022/09/20 07:40:57;;;;;;;11.55;5.50;;;9.90;99.90;;;;;;5038279;28;20040;-74
2022/09/20 07:43:25;;;;;;;15.18;5.80;;;9.90;99.90;;;;;;5041708;28;20036;-74
2022/09/20 07:45:53;;;;;;;13.25;6.40;;;10.00;99.90;;;;;;5033324;28;20025;-74
2022/09/20 07:48:18;;;;;;;13.98;5.63;;;10.00;99.90;;;;;;5047727;28;20118;-73
2022/09/20 07:50:54;;;;;;;12.82;6.18;;;10.10;99.90;;;;;;5040990;28;20115;-73
2022/09/20 07:53:19;;;;;;;9.00;5.07;;;10.20;99.90;;;;;;5052816;28;20100;-73
2022/09/20 07:56:07;;;;;;;11.63;6.15;;;10.50;99.90;;;;;;5034267;28;20144;-74
2022/09/20 07:58:34;;;;;;;13.75;4.68;;;10.50;99.90;;;;;;5037969;28;20056;-74
2022/09/20 08:01:03;;;;;;;10.95;5.28;;;10.50;99.90;;;;;;5042122;28;20108;-74
2022/09/20 08:03:30;;;;;;;10.52;5.03;;;12.30;99.90;;;;;;5045836;28;20507;-73
2022/09/20 08:06:03;;;;;;;10.35;4.55;;;10.50;99.90;;;;;;5044887;28;20053;-73
2022/09/20 08:08:35;;;;;;;7.75;4.60;;;10.50;99.90;;;;;;5034136;28;20033;-74
2022/09/20 08:11:15;;;;;;;8.32;4.82;;;10.40;99.90;;;;;;5046472;28;20185;-74
2022/09/20 08:13:45;;;;;;;8.45;4.30;;;10.50;99.90;;;;;;5044846;28;20026;-74
2022/09/20 08:16:12;;;;;;;10.65;4.40;;;11.10;99.90;;;;;;5049547;28;20091;-74
2022/09/20 08:18:43;;;;;;;9.00;3.78;;;10.70;99.90;;;;;;5043912;28;20548;-74
2022/09/20 08:21:10;;;;;;;9.48;3.80;;;10.60;99.90;;;;;;5040403;28;20112;-73
2022/09/20 08:23:37;;;;;;;7.57;3.97;;;10.60;99.90;;;;;;5081888;22;20136;-72
2022/09/20 08:26:04;;;;;;;9.45;3.65;;;10.70;99.90;;;;;;5075541;28;20025;-72
2022/09/20 08:28:30;;;;;;;14.15;4.93;;;10.50;99.90;;;;;;5072074;28;20111;-72
2022/09/20 08:31:04;;;;;;;7.75;3.78;;;10.40;99.90;;;;;;5073419;28;20120;-71
2022/09/20 08:33:30;;;;;;;13.48;4.78;;;10.30;99.90;;;;;;5068310;28;20098;-72
2022/09/20 08:35:56;;;;;;;11.15;3.83;;;10.40;99.90;;;;;;5053544;28;20424;-72
2022/09/20 08:38:25;;;;;;;13.52;4.20;;;10.30;99.90;;;;;;5053174;28;20021;-72
2022/09/20 08:41:13;;;;;;;9.60;3.75;;;10.30;99.90;;;;;;5059473;28;20072;-73
2022/09/20 08:43:52;;;;;;;10.43;4.10;;;10.30;99.90;;;;;;5069217;28;20040;-72
2022/09/20 08:46:21;;;;;;;7.90;3.42;;;10.30;99.90;;;;;;5064236;28;20389;-73
2022/09/20 08:48:46;;;;;;;14.10;4.32;;;10.30;99.90;;;;;;5072867;28;20025;-71
2022/09/20 08:51:15;;;;;;;8.32;3.63;;;10.30;99.90;;;;;;5060471;28;20017;-72
2022/09/20 08:53:46;;;;;;;11.10;4.45;;;10.30;99.90;;;;;;5052912;28;20029;-72
2022/09/20 08:56:13;;;;;;;8.30;3.22;;;10.40;99.90;;;;;;5052989;28;20071;-72
2022/09/20 08:58:39;;;;;;;7.68;3.70;;;10.30;99.90;;;;;;5051263;28;20040;-72
2022/09/20 09:01:05;;;;;;;9.48;3.95;;;10.40;99.90;;;;;;5052922;28;20033;-72
2022/09/20 09:03:32;;;;;;;13.65;3.80;;;10.50;99.90;;;;;;5070172;28;20077;-72
2022/09/20 09:06:00;;;;;;;10.68;3.97;;;10.40;99.90;;;;;;5069406;28;20017;-72
2022/09/20 09:08:33;;;;;;;8.23;3.50;;;10.10;99.90;;;;;;5071222;28;20701;-74
2022/09/20 09:11:07;;;;;;;13.68;4.20;;;10.00;99.90;;;;;;5063466;28;20020;-72
2022/09/20 09:13:43;;;;;;;8.65;4.20;;;9.90;99.90;;;;;;5064304;28;20059;-72
2022/09/20 09:16:14;;;;;;;11.85;4.60;;;10.10;99.90;;;;;;5066312;28;20032;-73
2022/09/20 09:18:41;;;;;;;9.15;4.38;;;10.30;99.90;;;;;;5058577;28;20048;-72
2022/09/20 09:21:15;;;;;;;12.02;4.05;;;10.40;99.90;;;;;;5055681;28;20546;-72
2022/09/20 09:23:51;;;;;;;10.88;4.00;;;10.60;99.90;;;;;;5071442;28;20639;-72
2022/09/20 09:26:23;;;;;;;13.82;4.82;;;10.70;99.90;;;;;;5068292;28;20020;-72
2022/09/20 09:29:11;;;;;;;12.43;4.68;;;11.00;99.90;;;;;;5062739;28;20025;-73
2022/09/20 09:31:38;;;;;;;11.75;4.28;;;11.30;99.90;;;;;;5071994;28;20070;-72
2022/09/20 09:34:04;;;;;;;6.38;3.83;;;11.40;99.90;;;;;;5058966;28;20028;-72
2022/09/20 09:36:30;;;;;;;11.80;4.35;;;11.20;99.90;;;;;;5062100;28;20108;-72
2022/09/20 09:39:21;;;;;;;9.73;3.70;;;11.30;99.90;;;;;;5065337;28;20112;-72
2022/09/20 09:41:46;;;;;;;12.50;4.60;;;11.20;99.90;;;;;;5065788;28;20028;-72
2022/09/20 09:44:21;;;;;;;8.57;3.53;;;11.10;99.90;;;;;;5059023;28;20386;-72
2022/09/20 09:46:49;;;;;;;7.78;3.30;;;11.10;99.90;;;;;;5058687;28;20475;-73
2022/09/20 09:49:21;;;;;;;8.55;2.85;;;11.00;99.90;;;;;;5063886;28;20021;-71
2022/09/20 09:52:13;;;;;;;8.50;3.22;;;11.10;99.90;;;;;;5065636;28;20100;-72
2022/09/20 09:54:43;;;;;;;9.10;3.65;;;11.20;99.90;;;;;;5064750;28;20051;-72
2022/09/20 09:57:14;;;;;;;9.13;3.22;;;11.10;99.90;;;;;;5058575;28;20070;-72
2022/09/20 09:59:48;;;;;;;10.65;3.50;;;11.20;99.90;;;;;;5061352;28;20116;-70
2022/09/20 10:02:34;;;;;;;8.23;2.88;;;11.30;99.90;;;;;;5066032;28;20053;-72
2022/09/20 10:05:27;;;;;;;9.13;3.22;;;11.50;99.90;;;;;;5060529;28;20506;-72
2022/09/20 10:08:17;;;;;;;9.07;3.30;;;11.40;99.90;;;;;;5061323;28;20024;-72
2022/09/20 10:11:04;;;;;;;7.45;3.08;;;11.20;99.90;;;;;;5063018;28;20056;-72
2022/09/20 10:13:49;;;;;;;10.30;4.00;;;11.10;99.90;;;;;;5056923;28;20021;-72
2022/09/20 10:16:40;;;;;;;9.07;3.72;;;11.30;99.90;;;;;;5062003;28;20045;-71
2022/09/20 10:19:25;;;;;;;7.72;3.20;;;11.30;99.90;;;;;;5081293;28;20032;-73
2022/09/20 10:22:07;;;;;;;6.97;2.90;;;11.60;99.90;;;;;;5058353;28;20028;-71
2022/09/20 10:24:32;;;;;;;8.55;3.67;;;11.90;99.90;;;;;;5064909;28;20393;-72
2022/09/20 10:27:21;;;;;;;8.10;3.30;;;11.90;99.90;;;;;;5059714;28;20017;-72
2022/09/20 10:30:25;;;;;;;9.32;3.25;;;12.10;99.90;;;;;;5066950;28;20389;-72
2022/09/20 10:32:54;;;;;;;7.32;2.83;;;12.20;99.90;;;;;;4989399;28;20026;-72
2022/09/20 10:35:38;;;;;;;6.68;2.90;;;12.00;99.90;;;;;;5037638;28;20561;-72
2022/09/20 10:38:22;;;;;;;6.07;2.67;;;11.70;99.90;;;;;;5060181;28;20032;-72
2022/09/20 10:44:11;;;;;;;5.90;2.22;;;12.20;99.90;;;;;;5058192;28;20562;-72
2022/09/20 10:47:10;;;;;;;9.88;2.33;;;12.30;99.90;;;;;;5059574;28;20028;-72
2022/09/20 10:49:51;;;;;;;8.10;2.42;;;12.50;99.90;;;;;;5067062;28;20052;-71
2022/09/20 10:52:26;;;;;;;7.20;2.60;;;12.20;99.90;;;;;;5067615;28;20028;-71
2022/09/20 10:55:30;;;;;;;5.90;2.30;;;11.80;99.90;;;;;;5055741;28;20107;-71
2022/09/20 10:58:02;;;;;;;9.10;2.40;;;11.50;99.90;;;;;;5030867;28;20037;-71
2022/09/20 11:00:57;;;;;;;6.30;2.42;;;11.20;99.90;;;;;;5057200;28;20417;-72
2022/09/20 11:03:47;;;;;;;9.65;3.67;;;11.10;99.90;;;;;;5065911;28;20052;-72
2022/09/20 11:06:16;;;;;;;10.93;4.20;;;10.70;99.90;;;;;;5064888;28;20063;-72
2022/09/20 11:08:44;;;;;;;11.05;3.90;;;10.90;99.90;;;;;;5057577;28;20046;-72
2022/09/20 11:11:15;;;;;;;8.10;3.90;;;11.10;99.90;;;;;;5065086;28;20025;-71
2022/09/20 11:14:08;;;;;;;8.63;3.10;;;11.40;99.90;;;;;;5065764;28;20025;-73
2022/09/20 11:16:59;;;;;;;5.43;2.20;;;11.70;99.90;;;;;;5057865;28;20048;-71
2022/09/20 11:19:55;;;;;;;5.88;2.25;;;11.90;99.90;;;;;;5063719;28;20025;-71
2022/09/20 11:22:37;;;;;;;8.00;2.15;;;11.90;99.90;;;;;;5058659;28;20409;-72
2022/09/20 11:25:22;;;;;;;4.72;1.98;;;12.50;99.90;;;;;;5061498;28;20062;-72
2022/09/20 11:27:57;;;;;;;4.75;1.63;;;12.70;99.90;;;;;;5064551;28;20027;-72
2022/09/20 11:30:23;;;;;;;2.47;1.27;;;12.90;99.90;;;;;;5062635;28;20021;-73
2022/09/20 11:33:24;;;;;;;5.85;1.70;;;12.60;99.90;;;;;;5064977;28;20021;-72
2022/09/20 11:35:53;;;;;;;8.25;1.50;;;12.40;99.90;;;;;;5057887;28;20036;-73
2022/09/20 11:38:33;;;;;;;2.60;1.52;;;12.80;99.90;;;;;;5065897;28;20024;-71
2022/09/20 11:41:10;;;;;;;3.92;1.70;;;12.70;99.90;;;;;;5062042;28;20063;-71
2022/09/20 11:43:41;;;;;;;6.93;2.05;;;12.70;99.90;;;;;;5066373;28;20636;-74
2022/09/20 11:46:10;;;;;;;4.63;1.80;;;13.20;99.90;;;;;;5061948;28;20048;-72
2022/09/20 11:48:44;;;;;;;3.75;1.67;;;13.50;99.90;;;;;;5062567;28;20160;-71
2022/09/20 11:51:30;;;;;;;4.45;1.60;;;13.90;99.90;;;;;;5068840;28;20027;-72
2022/09/20 11:54:25;;;;;;;4.10;1.35;;;14.10;99.90;;;;;;5061642;28;20029;-74
2022/09/20 11:56:55;;;;;;;4.65;1.40;;;15.00;99.90;;;;;;5060292;28;20028;-73
2022/09/20 11:59:39;;;;;;;2.85;1.52;;;15.60;99.90;;;;;;5066511;28;20074;-72
2022/09/20 12:02:35;;;;;;;3.22;1.50;;;15.40;99.90;;;;;;5066833;28;20501;-73
2022/09/20 12:05:04;;;;;;;4.18;1.33;;;16.30;99.90;;;;;;5071047;28;20421;-73
2022/09/20 12:07:42;;;;;;;4.35;1.50;;;16.20;99.90;;;;;;5073704;28;20035;-72
2022/09/20 12:10:34;;;;;;;3.55;1.13;;;15.20;99.90;;;;;;5060517;28;20040;-72
2022/09/20 12:13:06;;;;;;;5.20;1.45;;;15.90;99.90;;;;;;5070796;28;20013;-73
2022/09/20 12:15:38;;;;;;;3.53;1.48;;;15.90;99.90;;;;;;5063951;28;20023;-72
2022/09/20 12:18:26;;;;;;;4.15;1.77;;;15.20;99.90;;;;;;5059946;28;20081;-72
2022/09/20 12:20:55;;;;;;;4.72;1.58;;;16.50;99.90;;;;;;5060201;28;20025;-73
2022/09/20 12:23:41;;;;;;;4.43;1.40;;;17.00;99.90;;;;;;5065327;28;20029;-72
2022/09/20 12:26:12;;;;;;;3.40;1.33;;;15.80;99.90;;;;;;5067033;28;20074;-74
2022/09/20 12:28:48;;;;;;;4.68;1.73;;;16.20;99.90;;;;;;5062920;28;20477;-73
2022/09/20 12:31:30;;;;;;;3.58;1.45;;;16.00;99.90;;;;;;5066946;28;20028;-73
2022/09/20 12:34:02;;;;;;;5.32;1.52;;;14.80;99.90;;;;;;5066853;28;20029;-72
2022/09/20 12:36:34;;;;;;;4.85;1.20;;;14.20;99.90;;;;;;5063013;28;20030;-73
2022/09/20 12:39:10;;;;;;;5.25;1.38;;;14.60;99.90;;;;;;5058715;28;20044;-74
2022/09/20 12:41:57;;;;;;;3.05;1.10;;;14.70;99.90;;;;;;5059908;28;20115;-73
2022/09/20 12:44:48;;;;;;;2.67;1.10;;;15.10;99.90;;;;;;5065784;28;20025;-72
2022/09/20 12:47:19;;;;;;;3.53;1.27;;;15.50;99.90;;;;;;5071026;28;20051;-72
2022/09/20 12:52:49;;;;;;;2.65;0.88;;;13.90;99.90;;;;;;5060995;28;20032;-72
2022/09/20 12:55:42;;;;;;;4.13;0.90;;;13.70;99.90;;;;;;5058405;28;20131;-72
2022/09/20 12:58:13;;;;;;;2.22;0.88;;;14.00;99.90;;;;;;5070641;28;20113;-73
2022/09/20 13:00:45;;;;;;;3.50;0.80;;;13.80;99.90;;;;;;5061266;28;20055;-72
2022/09/20 13:03:14;;;;;;;4.53;1.20;;;13.90;99.90;;;;;;5058233;28;20029;-73
2022/09/20 13:05:43;;;;;;;5.10;1.30;;;13.90;99.90;;;;;;5072897;28;20024;-72
2022/09/20 13:08:19;;;;;;;2.67;0.85;;;13.80;99.90;;;;;;5069597;28;20024;-72
2022/09/20 13:11:00;;;;;;;1.98;1.00;;;13.40;99.90;;;;;;5062761;28;20440;-72
2022/09/20 13:13:53;;;;;;;3.60;1.40;;;13.30;99.90;;;;;;5059412;28;20033;-72
2022/09/20 13:16:21;;;;;;;5.93;1.10;;;13.00;99.90;;;;;;5059127;28;20042;-73
2022/09/20 13:18:57;;;;;;;5.30;1.27;;;13.20;99.90;;;;;;5072420;28;20025;-72
2022/09/20 13:21:23;;;;;;;3.30;1.30;;;13.20;99.90;;;;;;5059153;28;20439;-72
2022/09/20 13:23:51;;;;;;;6.15;1.50;;;13.40;99.90;;;;;;5060396;28;20060;-73
2022/09/20 13:26:24;;;;;;;3.17;1.15;;;13.30;99.90;;;;;;5069914;28;20138;-73
2022/09/20 13:28:54;;;;;;;3.72;1.30;;;12.70;99.90;;;;;;5057928;28;20025;-73
2022/09/20 13:31:19;;;;;;;2.42;1.00;;;12.60;99.90;;;;;;5059102;28;20095;-73
2022/09/20 13:33:45;;;;;;;5.78;1.60;;;12.60;99.90;;;;;;5057426;28;20508;-73
2022/09/20 13:36:11;;;;;;;3.08;1.10;;;12.60;99.90;;;;;;5057912;28;20021;-73
2022/09/20 13:38:37;;;;;;;2.13;1.30;;;12.60;99.90;;;;;;5058549;28;20033;-72
2022/09/20 13:41:12;;;;;;;4.70;1.48;;;14.30;99.90;;;;;;5058909;28;20104;-73
2022/09/20 13:43:42;;;;;;;1.85;1.23;;;16.10;99.90;;;;;;5058582;28;20075;-73
2022/09/20 13:46:15;;;;;;;3.10;1.10;;;16.80;99.90;;;;;;5070697;28;20393;-72
2022/09/20 13:48:41;;;;;;;2.67;1.05;;;18.50;99.90;;;;;;5055749;28;20017;-74
2022/09/20 13:51:27;;;;;;;2.60;1.00;;;17.00;99.90;;;;;;5060898;28;20040;-74
2022/09/20 13:53:53;;;;;;;3.38;1.08;;;15.40;99.90;;;;;;5058563;28;20020;-72
2022/09/20 13:56:27;;;;;;;5.15;1.30;;;14.00;99.90;;;;;;5060142;28;20367;-72